Cockburnspath, United Kingdom
Current Conditions -  °F | °C
As of 7:50 AM on Thursday 29 Jan 2015 (Local Time) from EGQL Reporting Station
Few Clouds Few Clouds  
Wind Chill: 24°   Ceiling: Unl
Heat Index: NA   Visibility: 6mi
Dew Point: 36°   Wind: 14mph
Humidity: NA   Direction: 250°WSW
Pressure: 28.76"   Gusts: NA
Location:  55.93°N, 2.36°W
Report Text: EGQL 290750Z 25012KT 9999 FEW040 01/02 Q0974 BLU
Loading
Personal Weather Stations






























Interactive Weather Map New forecast layout! Learn more

10-Day Weather Forecast

Advertisements
Track Severe Weather on mobile